sensor_id;sensor_type;location;lat;lon;timestamp;temperature;humidity
57576;DHT22;43412;-33.800;150.804;2022-09-03T00:07:16;12.70;99.90
57576;DHT22;43412;-33.800;150.804;2022-09-03T00:09:55;12.70;99.90
57576;DHT22;43412;-33.800;150.804;2022-09-03T00:12:31;12.60;99.90
57576;DHT22;43412;-33.800;150.804;2022-09-03T00:17:48;12.70;99.90
57576;DHT22;43412;-33.800;150.804;2022-09-03T00:20:24;12.70;99.90
57576;DHT22;43412;-33.800;150.804;2022-09-03T00:22:59;12.70;99.90
57576;DHT22;43412;-33.800;150.804;2022-09-03T00:28:26;12.70;99.90
57576;DHT22;43412;-33.800;150.804;2022-09-03T00:31:04;12.70;99.90
57576;DHT22;43412;-33.800;150.804;2022-09-03T00:33:32;12.70;99.90
57576;DHT22;43412;-33.800;150.804;2022-09-03T00:36:20;12.70;99.90
57576;DHT22;43412;-33.800;150.804;2022-09-03T00:38:50;12.70;99.90
57576;DHT22;43412;-33.800;150.804;2022-09-03T00:41:29;12.70;99.90
57576;DHT22;43412;-33.800;150.804;2022-09-03T00:44:07;12.80;99.90
57576;DHT22;43412;-33.800;150.804;2022-09-03T00:49:55;13.00;99.90
57576;DHT22;43412;-33.800;150.804;2022-09-03T01:00:55;13.70;99.90
57576;DHT22;43412;-33.800;150.804;2022-09-03T01:06:18;13.80;99.90
57576;DHT22;43412;-33.800;150.804;2022-09-03T01:09:10;13.90;99.90
57576;DHT22;43412;-33.800;150.804;2022-09-03T01:14:25;13.80;99.90
57576;DHT22;43412;-33.800;150.804;2022-09-03T01:17:30;13.80;99.90
57576;DHT22;43412;-33.800;150.804;2022-09-03T01:23:18;13.70;99.90
57576;DHT22;43412;-33.800;150.804;2022-09-03T01:26:30;13.80;99.90
57576;DHT22;43412;-33.800;150.804;2022-09-03T01:29:31;13.80;99.90
57576;DHT22;43412;-33.800;150.804;2022-09-03T01:32:24;13.90;99.90
57576;DHT22;43412;-33.800;150.804;2022-09-03T01:35:19;14.10;99.90
57576;DHT22;43412;-33.800;150.804;2022-09-03T01:38:03;14.40;99.90
57576;DHT22;43412;-33.800;150.804;2022-09-03T01:40:51;14.80;99.90
57576;DHT22;43412;-33.800;150.804;2022-09-03T01:43:32;15.00;99.90
57576;DHT22;43412;-33.800;150.804;2022-09-03T01:46:07;14.90;99.90
57576;DHT22;43412;-33.800;150.804;2022-09-03T01:48:56;15.00;99.90
57576;DHT22;43412;-33.800;150.804;2022-09-03T01:51:29;15.00;99.90
57576;DHT22;43412;-33.800;150.804;2022-09-03T01:59:26;14.70;99.90
57576;DHT22;43412;-33.800;150.804;2022-09-03T02:02:14;14.60;99.90
57576;DHT22;43412;-33.800;150.804;2022-09-03T02:05:06;14.60;99.90
57576;DHT22;43412;-33.800;150.804;2022-09-03T02:07:46;14.50;99.90
57576;DHT22;43412;-33.800;150.804;2022-09-03T02:10:20;14.40;99.90
57576;DHT22;43412;-33.800;150.804;2022-09-03T02:12:53;14.30;99.90
57576;DHT22;43412;-33.800;150.804;2022-09-03T02:15:24;14.40;99.90
57576;DHT22;43412;-33.800;150.804;2022-09-03T02:17:54;14.40;99.90
57576;DHT22;43412;-33.800;150.804;2022-09-03T02:20:26;14.50;99.90
57576;DHT22;43412;-33.800;150.804;2022-09-03T02:22:56;14.60;99.90
57576;DHT22;43412;-33.800;150.804;2022-09-03T02:25:28;14.80;99.90
57576;DHT22;43412;-33.800;150.804;2022-09-03T02:27:57;15.10;99.90
57576;DHT22;43412;-33.800;150.804;2022-09-03T02:30:25;15.30;99.90
57576;DHT22;43412;-33.800;150.804;2022-09-03T02:32:53;15.70;99.90
57576;DHT22;43412;-33.800;150.804;2022-09-03T02:35:20;15.90;99.90
57576;DHT22;43412;-33.800;150.804;2022-09-03T02:37:48;16.10;99.90
57576;DHT22;43412;-33.800;150.804;2022-09-03T02:40:16;16.10;99.90
57576;DHT22;43412;-33.800;150.804;2022-09-03T02:42:44;15.90;99.90
57576;DHT22;43412;-33.800;150.804;2022-09-03T02:45:27;15.50;99.90
57576;DHT22;43412;-33.800;150.804;2022-09-03T02:47:58;15.30;99.90
57576;DHT22;43412;-33.800;150.804;2022-09-03T02:50:26;15.10;99.90
57576;DHT22;43412;-33.800;150.804;2022-09-03T02:52:53;15.00;99.90
57576;DHT22;43412;-33.800;150.804;2022-09-03T02:55:21;15.00;99.90
57576;DHT22;43412;-33.800;150.804;2022-09-03T02:57:49;14.90;99.90
57576;DHT22;43412;-33.800;150.804;2022-09-03T03:00:17;15.00;99.90
57576;DHT22;43412;-33.800;150.804;2022-09-03T03:02:44;15.10;99.90
57576;DHT22;43412;-33.800;150.804;2022-09-03T03:05:17;15.20;99.90
57576;DHT22;43412;-33.800;150.804;2022-09-03T03:07:47;15.30;99.90
57576;DHT22;43412;-33.800;150.804;2022-09-03T03:10:15;15.60;99.90
57576;DHT22;43412;-33.800;150.804;2022-09-03T03:12:43;15.80;99.90
57576;DHT22;43412;-33.800;150.804;2022-09-03T03:15:10;16.00;99.90
57576;DHT22;43412;-33.800;150.804;2022-09-03T03:17:38;16.20;99.90
57576;DHT22;43412;-33.800;150.804;2022-09-03T03:20:06;16.30;99.90
57576;DHT22;43412;-33.800;150.804;2022-09-03T03:22:33;16.30;99.90
57576;DHT22;43412;-33.800;150.804;2022-09-03T03:25:01;16.20;99.90
57576;DHT22;43412;-33.800;150.804;2022-09-03T03:27:28;16.20;99.90
57576;DHT22;43412;-33.800;150.804;2022-09-03T03:29:56;16.00;99.90
57576;DHT22;43412;-33.800;150.804;2022-09-03T03:32:23;15.70;99.90
57576;DHT22;43412;-33.800;150.804;2022-09-03T03:34:51;15.50;99.90
57576;DHT22;43412;-33.800;150.804;2022-09-03T03:37:18;15.40;99.90
57576;DHT22;43412;-33.800;150.804;2022-09-03T03:39:45;15.30;99.90
57576;DHT22;43412;-33.800;150.804;2022-09-03T03:42:13;15.20;99.90
57576;DHT22;43412;-33.800;150.804;2022-09-03T03:44:40;15.00;99.90
57576;DHT22;43412;-33.800;150.804;2022-09-03T03:47:09;15.00;99.90
57576;DHT22;43412;-33.800;150.804;2022-09-03T03:49:37;15.10;99.90
57576;DHT22;43412;-33.800;150.804;2022-09-03T03:52:05;15.10;99.90
57576;DHT22;43412;-33.800;150.804;2022-09-03T03:54:32;15.10;99.90
57576;DHT22;43412;-33.800;150.804;2022-09-03T03:57:00;15.10;99.90
57576;DHT22;43412;-33.800;150.804;2022-09-03T03:59:27;15.10;99.90
57576;DHT22;43412;-33.800;150.804;2022-09-03T04:01:55;15.20;99.90
57576;DHT22;43412;-33.800;150.804;2022-09-03T04:04:22;15.30;99.90
57576;DHT22;43412;-33.800;150.804;2022-09-03T04:06:50;15.40;99.90
57576;DHT22;43412;-33.800;150.804;2022-09-03T04:09:17;15.50;99.90
57576;DHT22;43412;-33.800;150.804;2022-09-03T04:11:44;15.40;99.90
57576;DHT22;43412;-33.800;150.804;2022-09-03T04:14:12;15.30;99.90
57576;DHT22;43412;-33.800;150.804;2022-09-03T04:16:39;15.30;99.90
57576;DHT22;43412;-33.800;150.804;2022-09-03T04:19:06;15.20;99.90
57576;DHT22;43412;-33.800;150.804;2022-09-03T04:21:34;15.30;99.90
57576;DHT22;43412;-33.800;150.804;2022-09-03T04:24:04;15.30;99.90
57576;DHT22;43412;-33.800;150.804;2022-09-03T04:26:32;15.40;99.90
57576;DHT22;43412;-33.800;150.804;2022-09-03T04:29:03;15.40;99.90
57576;DHT22;43412;-33.800;150.804;2022-09-03T04:31:31;15.40;99.90
57576;DHT22;43412;-33.800;150.804;2022-09-03T04:33:59;15.50;99.90
57576;DHT22;43412;-33.800;150.804;2022-09-03T04:36:28;15.50;99.90
57576;DHT22;43412;-33.800;150.804;2022-09-03T04:38:59;15.60;99.90
57576;DHT22;43412;-33.800;150.804;2022-09-03T04:41:29;15.70;99.90
57576;DHT22;43412;-33.800;150.804;2022-09-03T04:43:58;15.60;99.90
57576;DHT22;43412;-33.800;150.804;2022-09-03T04:46:27;15.50;99.90
57576;DHT22;43412;-33.800;150.804;2022-09-03T04:48:58;15.50;99.90
57576;DHT22;43412;-33.800;150.804;2022-09-03T04:51:27;15.50;99.90
57576;DHT22;43412;-33.800;150.804;2022-09-03T04:54:00;15.60;99.90
57576;DHT22;43412;-33.800;150.804;2022-09-03T04:56:32;15.60;99.90
57576;DHT22;43412;-33.800;150.804;2022-09-03T04:59:03;15.90;99.90
57576;DHT22;43412;-33.800;150.804;2022-09-03T05:01:32;16.00;99.90
57576;DHT22;43412;-33.800;150.804;2022-09-03T05:04:01;16.10;99.90
57576;DHT22;43412;-33.800;150.804;2022-09-03T05:06:29;16.20;99.90
57576;DHT22;43412;-33.800;150.804;2022-09-03T05:08:58;16.30;99.90
57576;DHT22;43412;-33.800;150.804;2022-09-03T05:11:26;16.20;99.90
57576;DHT22;43412;-33.800;150.804;2022-09-03T05:13:56;16.10;99.90
57576;DHT22;43412;-33.800;150.804;2022-09-03T05:16:25;16.10;99.90
57576;DHT22;43412;-33.800;150.804;2022-09-03T05:18:55;16.00;99.90
57576;DHT22;43412;-33.800;150.804;2022-09-03T05:21:25;15.90;99.90
57576;DHT22;43412;-33.800;150.804;2022-09-03T05:23:54;15.90;99.90
57576;DHT22;43412;-33.800;150.804;2022-09-03T05:26:24;16.00;99.90
57576;DHT22;43412;-33.800;150.804;2022-09-03T05:28:59;16.00;99.90
57576;DHT22;43412;-33.800;150.804;2022-09-03T05:31:27;15.90;99.90
57576;DHT22;43412;-33.800;150.804;2022-09-03T05:33:58;15.60;99.90
57576;DHT22;43412;-33.800;150.804;2022-09-03T05:36:30;15.30;99.90
57576;DHT22;43412;-33.800;150.804;2022-09-03T05:38:58;14.90;99.90
57576;DHT22;43412;-33.800;150.804;2022-09-03T05:41:26;14.60;99.90
57576;DHT22;43412;-33.800;150.804;2022-09-03T05:43:55;14.30;99.90
57576;DHT22;43412;-33.800;150.804;2022-09-03T05:46:26;14.10;99.90
57576;DHT22;43412;-33.800;150.804;2022-09-03T05:49:02;13.90;99.90
57576;DHT22;43412;-33.800;150.804;2022-09-03T05:51:32;13.70;99.90
57576;DHT22;43412;-33.800;150.804;2022-09-03T05:53:59;13.50;99.90
57576;DHT22;43412;-33.800;150.804;2022-09-03T05:56:29;13.40;99.90
57576;DHT22;43412;-33.800;150.804;2022-09-03T05:58:59;13.30;99.90
57576;DHT22;43412;-33.800;150.804;2022-09-03T06:01:29;13.20;99.90
57576;DHT22;43412;-33.800;150.804;2022-09-03T06:03:58;13.20;99.90
57576;DHT22;43412;-33.800;150.804;2022-09-03T06:06:28;13.20;99.90
57576;DHT22;43412;-33.800;150.804;2022-09-03T06:08:59;13.20;99.90
57576;DHT22;43412;-33.800;150.804;2022-09-03T06:11:28;13.20;99.90
57576;DHT22;43412;-33.800;150.804;2022-09-03T06:13:57;13.30;99.90
57576;DHT22;43412;-33.800;150.804;2022-09-03T06:16:29;13.40;99.90
57576;DHT22;43412;-33.800;150.804;2022-09-03T06:18:57;13.40;99.90
57576;DHT22;43412;-33.800;150.804;2022-09-03T06:21:24;13.50;99.90
57576;DHT22;43412;-33.800;150.804;2022-09-03T06:23:54;13.50;99.90
57576;DHT22;43412;-33.800;150.804;2022-09-03T06:26:25;13.60;99.90
57576;DHT22;43412;-33.800;150.804;2022-09-03T06:28:54;13.60;99.90
57576;DHT22;43412;-33.800;150.804;2022-09-03T06:31:22;13.60;99.90
57576;DHT22;43412;-33.800;150.804;2022-09-03T06:33:49;13.50;99.90
57576;DHT22;43412;-33.800;150.804;2022-09-03T06:36:19;13.50;99.90
57576;DHT22;43412;-33.800;150.804;2022-09-03T06:38:54;13.50;99.90
57576;DHT22;43412;-33.800;150.804;2022-09-03T06:41:24;13.40;99.90
57576;DHT22;43412;-33.800;150.804;2022-09-03T06:43:54;13.40;99.90
57576;DHT22;43412;-33.800;150.804;2022-09-03T06:46:23;13.30;99.90
57576;DHT22;43412;-33.800;150.804;2022-09-03T06:48:51;13.30;99.90
57576;DHT22;43412;-33.800;150.804;2022-09-03T06:51:21;13.20;99.90
57576;DHT22;43412;-33.800;150.804;2022-09-03T06:53:50;13.20;99.90
57576;DHT22;43412;-33.800;150.804;2022-09-03T06:56:21;13.20;99.90
57576;DHT22;43412;-33.800;150.804;2022-09-03T06:58:53;13.20;99.90
57576;DHT22;43412;-33.800;150.804;2022-09-03T07:01:26;13.20;99.90
57576;DHT22;43412;-33.800;150.804;2022-09-03T07:03:58;13.20;99.90
57576;DHT22;43412;-33.800;150.804;2022-09-03T07:06:28;13.10;99.90
57576;DHT22;43412;-33.800;150.804;2022-09-03T07:08:56;13.10;99.90
57576;DHT22;43412;-33.800;150.804;2022-09-03T07:11:27;13.00;99.90
57576;DHT22;43412;-33.800;150.804;2022-09-03T07:13:57;13.00;99.90
57576;DHT22;43412;-33.800;150.804;2022-09-03T07:16:26;13.00;99.90
57576;DHT22;43412;-33.800;150.804;2022-09-03T07:18:54;13.00;99.90
57576;DHT22;43412;-33.800;150.804;2022-09-03T07:21:27;13.00;99.90
57576;DHT22;43412;-33.800;150.804;2022-09-03T07:23:56;13.00;99.90
57576;DHT22;43412;-33.800;150.804;2022-09-03T07:26:29;13.00;99.90
57576;DHT22;43412;-33.800;150.804;2022-09-03T07:28:58;13.00;99.90
57576;DHT22;43412;-33.800;150.804;2022-09-03T07:31:35;13.00;99.90
57576;DHT22;43412;-33.800;150.804;2022-09-03T07:34:05;12.90;99.90
57576;DHT22;43412;-33.800;150.804;2022-09-03T07:36:39;12.80;99.90
57576;DHT22;43412;-33.800;150.804;2022-09-03T07:39:12;12.80;99.90
57576;DHT22;43412;-33.800;150.804;2022-09-03T07:41:41;12.80;99.90
57576;DHT22;43412;-33.800;150.804;2022-09-03T07:44:16;12.70;99.90
57576;DHT22;43412;-33.800;150.804;2022-09-03T07:46:47;12.70;99.90
57576;DHT22;43412;-33.800;150.804;2022-09-03T07:49:16;12.70;99.90
57576;DHT22;43412;-33.800;150.804;2022-09-03T07:51:43;12.60;99.90
57576;DHT22;43412;-33.800;150.804;2022-09-03T07:54:12;12.50;99.90
57576;DHT22;43412;-33.800;150.804;2022-09-03T07:56:40;12.40;99.90
57576;DHT22;43412;-33.800;150.804;2022-09-03T07:59:08;12.40;99.90
57576;DHT22;43412;-33.800;150.804;2022-09-03T08:01:36;12.20;99.90
57576;DHT22;43412;-33.800;150.804;2022-09-03T08:04:04;12.20;99.90
57576;DHT22;43412;-33.800;150.804;2022-09-03T08:06:33;12.10;99.90
57576;DHT22;43412;-33.800;150.804;2022-09-03T08:09:05;12.00;99.90
57576;DHT22;43412;-33.800;150.804;2022-09-03T08:11:36;12.00;99.90
57576;DHT22;43412;-33.800;150.804;2022-09-03T08:14:09;11.90;99.90
57576;DHT22;43412;-33.800;150.804;2022-09-03T08:16:42;11.90;99.90
57576;DHT22;43412;-33.800;150.804;2022-09-03T08:19:09;11.80;99.90
57576;DHT22;43412;-33.800;150.804;2022-09-03T08:21:38;11.80;99.90
57576;DHT22;43412;-33.800;150.804;2022-09-03T08:24:08;11.80;99.90
57576;DHT22;43412;-33.800;150.804;2022-09-03T08:26:38;11.70;99.90
57576;DHT22;43412;-33.800;150.804;2022-09-03T08:29:07;11.70;99.90
57576;DHT22;43412;-33.800;150.804;2022-09-03T08:31:35;11.70;99.90
57576;DHT22;43412;-33.800;150.804;2022-09-03T08:34:05;11.70;99.90
57576;DHT22;43412;-33.800;150.804;2022-09-03T08:36:35;11.60;99.90
57576;DHT22;43412;-33.800;150.804;2022-09-03T08:39:05;11.60;99.90
57576;DHT22;43412;-33.800;150.804;2022-09-03T08:57:48;11.30;99.90
57576;DHT22;43412;-33.800;150.804;2022-09-03T09:00:17;11.30;99.90
57576;DHT22;43412;-33.800;150.804;2022-09-03T09:08:19;11.30;99.90
57576;DHT22;43412;-33.800;150.804;2022-09-03T09:13:49;11.30;99.90
57576;DHT22;43412;-33.800;150.804;2022-09-03T09:17:12;11.30;99.90
57576;DHT22;43412;-33.800;150.804;2022-09-03T09:21:54;11.30;99.90
57576;DHT22;43412;-33.800;150.804;2022-09-03T09:24:26;11.30;99.90
57576;DHT22;43412;-33.800;150.804;2022-09-03T09:27:01;11.30;99.90
57576;DHT22;43412;-33.800;150.804;2022-09-03T09:29:34;11.30;99.90
57576;DHT22;43412;-33.800;150.804;2022-09-03T09:32:02;11.20;99.90
57576;DHT22;43412;-33.800;150.804;2022-09-03T09:34:37;11.20;99.90
57576;DHT22;43412;-33.800;150.804;2022-09-03T09:37:08;11.20;99.90
57576;DHT22;43412;-33.800;150.804;2022-09-03T09:39:37;11.20;99.90
57576;DHT22;43412;-33.800;150.804;2022-09-03T09:42:10;11.20;99.90
57576;DHT22;43412;-33.800;150.804;2022-09-03T09:44:42;11.20;99.90
57576;DHT22;43412;-33.800;150.804;2022-09-03T09:47:20;11.10;99.90
57576;DHT22;43412;-33.800;150.804;2022-09-03T09:49:56;11.10;99.90
57576;DHT22;43412;-33.800;150.804;2022-09-03T09:52:26;11.10;99.90
57576;DHT22;43412;-33.800;150.804;2022-09-03T09:55:15;11.00;99.90
57576;DHT22;43412;-33.800;150.804;2022-09-03T09:57:44;11.00;99.90
57576;DHT22;43412;-33.800;150.804;2022-09-03T10:00:16;11.00;99.90
57576;DHT22;43412;-33.800;150.804;2022-09-03T10:02:52;11.00;99.90
57576;DHT22;43412;-33.800;150.804;2022-09-03T10:05:28;11.00;99.90
57576;DHT22;43412;-33.800;150.804;2022-09-03T10:08:18;11.10;99.90
57576;DHT22;43412;-33.800;150.804;2022-09-03T10:10:50;11.10;99.90
57576;DHT22;43412;-33.800;150.804;2022-09-03T10:13:41;11.10;99.90
57576;DHT22;43412;-33.800;150.804;2022-09-03T10:16:30;11.20;99.90
57576;DHT22;43412;-33.800;150.804;2022-09-03T10:19:22;11.20;99.90
57576;DHT22;43412;-33.800;150.804;2022-09-03T10:22:28;11.20;99.90
57576;DHT22;43412;-33.800;150.804;2022-09-03T10:25:01;11.20;99.90
57576;DHT22;43412;-33.800;150.804;2022-09-03T10:27:29;11.20;99.90
57576;DHT22;43412;-33.800;150.804;2022-09-03T10:29:58;11.10;99.90
57576;DHT22;43412;-33.800;150.804;2022-09-03T10:32:55;11.10;99.90
57576;DHT22;43412;-33.800;150.804;2022-09-03T10:35:31;11.20;99.90
57576;DHT22;43412;-33.800;150.804;2022-09-03T10:43:56;11.40;99.90
57576;DHT22;43412;-33.800;150.804;2022-09-03T10:52:12;11.60;99.90
57576;DHT22;43412;-33.800;150.804;2022-09-03T11:00:08;11.50;99.90
57576;DHT22;43412;-33.800;150.804;2022-09-03T11:06:22;11.50;99.90
57576;DHT22;43412;-33.800;150.804;2022-09-03T11:12:35;11.50;99.90
57576;DHT22;43412;-33.800;150.804;2022-09-03T11:15:04;11.50;99.90
57576;DHT22;43412;-33.800;150.804;2022-09-03T11:17:56;11.50;99.90
57576;DHT22;43412;-33.800;150.804;2022-09-03T11:20:26;11.50;99.90
57576;DHT22;43412;-33.800;150.804;2022-09-03T11:23:00;11.50;99.90
57576;DHT22;43412;-33.800;150.804;2022-09-03T11:25:40;11.40;99.90
57576;DHT22;43412;-33.800;150.804;2022-09-03T11:31:15;11.40;99.90
57576;DHT22;43412;-33.800;150.804;2022-09-03T11:33:48;11.40;99.90
57576;DHT22;43412;-33.800;150.804;2022-09-03T11:36:30;11.30;99.90
57576;DHT22;43412;-33.800;150.804;2022-09-03T11:38:58;11.20;99.90
57576;DHT22;43412;-33.800;150.804;2022-09-03T11:41:27;11.20;99.90
57576;DHT22;43412;-33.800;150.804;2022-09-03T11:44:21;11.10;99.90
57576;DHT22;43412;-33.800;150.804;2022-09-03T11:46:58;11.00;99.90
57576;DHT22;43412;-33.800;150.804;2022-09-03T11:49:30;11.00;99.90
57576;DHT22;43412;-33.800;150.804;2022-09-03T11:52:03;11.00;99.90
57576;DHT22;43412;-33.800;150.804;2022-09-03T11:54:45;11.10;99.90
57576;DHT22;43412;-33.800;150.804;2022-09-03T11:57:25;11.10;99.90
57576;DHT22;43412;-33.800;150.804;2022-09-03T11:59:54;11.10;99.90
57576;DHT22;43412;-33.800;150.804;2022-09-03T12:02:35;11.10;99.90
57576;DHT22;43412;-33.800;150.804;2022-09-03T12:07:59;11.10;99.90
57576;DHT22;43412;-33.800;150.804;2022-09-03T12:19:09;10.80;99.90
57576;DHT22;43412;-33.800;150.804;2022-09-03T12:21:40;10.70;99.90
57576;DHT22;43412;-33.800;150.804;2022-09-03T12:24:11;10.70;99.90
57576;DHT22;43412;-33.800;150.804;2022-09-03T12:26:41;10.60;99.90
57576;DHT22;43412;-33.800;150.804;2022-09-03T12:29:22;10.50;99.90
57576;DHT22;43412;-33.800;150.804;2022-09-03T12:31:50;10.50;99.90
57576;DHT22;43412;-33.800;150.804;2022-09-03T12:34:22;10.50;99.90
57576;DHT22;43412;-33.800;150.804;2022-09-03T12:36:53;10.50;99.90
57576;DHT22;43412;-33.800;150.804;2022-09-03T12:39:27;10.40;99.90
57576;DHT22;43412;-33.800;150.804;2022-09-03T12:44:41;10.40;99.90
57576;DHT22;43412;-33.800;150.804;2022-09-03T12:47:16;10.50;99.90
57576;DHT22;43412;-33.800;150.804;2022-09-03T12:49:44;10.50;99.90
57576;DHT22;43412;-33.800;150.804;2022-09-03T12:52:27;10.50;99.90
57576;DHT22;43412;-33.800;150.804;2022-09-03T12:55:58;10.50;99.90
57576;DHT22;43412;-33.800;150.804;2022-09-03T13:00:33;10.70;99.90
57576;DHT22;43412;-33.800;150.804;2022-09-03T13:06:00;10.60;99.90
57576;DHT22;43412;-33.800;150.804;2022-09-03T13:08:37;10.60;99.90
57576;DHT22;43412;-33.800;150.804;2022-09-03T13:11:07;10.60;99.90
57576;DHT22;43412;-33.800;150.804;2022-09-03T13:13:36;10.50;99.90
57576;DHT22;43412;-33.800;150.804;2022-09-03T13:19:20;10.50;99.90
57576;DHT22;43412;-33.800;150.804;2022-09-03T13:22:15;10.50;99.90
57576;DHT22;43412;-33.800;150.804;2022-09-03T13:30:16;10.60;99.90
57576;DHT22;43412;-33.800;150.804;2022-09-03T13:33:25;10.60;99.90
57576;DHT22;43412;-33.800;150.804;2022-09-03T13:41:48;10.70;99.90
57576;DHT22;43412;-33.800;150.804;2022-09-03T13:44:49;10.70;99.90
57576;DHT22;43412;-33.800;150.804;2022-09-03T13:53:24;10.60;99.90
57576;DHT22;43412;-33.800;150.804;2022-09-03T13:56:23;10.60;99.90
57576;DHT22;43412;-33.800;150.804;2022-09-03T14:05:11;10.50;99.90
57576;DHT22;43412;-33.800;150.804;2022-09-03T14:13:23;10.40;99.90
57576;DHT22;43412;-33.800;150.804;2022-09-03T14:16:10;10.40;99.90
57576;DHT22;43412;-33.800;150.804;2022-09-03T14:21:34;10.40;99.90
57576;DHT22;43412;-33.800;150.804;2022-09-03T14:24:22;10.40;99.90
57576;DHT22;43412;-33.800;150.804;2022-09-03T14:26:56;10.40;99.90
57576;DHT22;43412;-33.800;150.804;2022-09-03T14:29:33;10.40;99.90
57576;DHT22;43412;-33.800;150.804;2022-09-03T14:32:14;10.40;99.90
57576;DHT22;43412;-33.800;150.804;2022-09-03T14:35:07;10.40;99.90
57576;DHT22;43412;-33.800;150.804;2022-09-03T14:40:45;10.50;99.90
57576;DHT22;43412;-33.800;150.804;2022-09-03T14:52:06;10.40;99.90
57576;DHT22;43412;-33.800;150.804;2022-09-03T14:54:48;10.50;99.90
57576;DHT22;43412;-33.800;150.804;2022-09-03T15:00:19;10.50;99.90
57576;DHT22;43412;-33.800;150.804;2022-09-03T15:05:49;10.60;99.90
57576;DHT22;43412;-33.800;150.804;2022-09-03T15:08:39;10.70;99.90
57576;DHT22;43412;-33.800;150.804;2022-09-03T15:11:32;10.70;99.90
57576;DHT22;43412;-33.800;150.804;2022-09-03T15:14:18;10.80;99.90
57576;DHT22;43412;-33.800;150.804;2022-09-03T15:16:59;10.90;99.90
57576;DHT22;43412;-33.800;150.804;2022-09-03T15:24:52;11.00;99.90
57576;DHT22;43412;-33.800;150.804;2022-09-03T15:27:30;11.00;99.90
57576;DHT22;43412;-33.800;150.804;2022-09-03T15:30:15;11.00;99.90
57576;DHT22;43412;-33.800;150.804;2022-09-03T15:35:37;11.00;99.90
57576;DHT22;43412;-33.800;150.804;2022-09-03T15:43:33;10.80;99.90
57576;DHT22;43412;-33.800;150.804;2022-09-03T15:46:09;10.70;99.90
57576;DHT22;43412;-33.800;150.804;2022-09-03T15:54:14;10.70;99.90
57576;DHT22;43412;-33.800;150.804;2022-09-03T16:02:17;10.60;99.90
57576;DHT22;43412;-33.800;150.804;2022-09-03T16:16:04;10.70;99.90
57576;DHT22;43412;-33.800;150.804;2022-09-03T16:24:33;10.90;99.90
57576;DHT22;43412;-33.800;150.804;2022-09-03T16:27:14;10.90;99.90
57576;DHT22;43412;-33.800;150.804;2022-09-03T16:30:09;11.00;99.90
57576;DHT22;43412;-33.800;150.804;2022-09-03T16:35:30;10.90;99.90
57576;DHT22;43412;-33.800;150.804;2022-09-03T16:43:29;10.70;99.90
57576;DHT22;43412;-33.800;150.804;2022-09-03T16:51:53;10.60;99.90
57576;DHT22;43412;-33.800;150.804;2022-09-03T17:06:25;10.90;99.90
57576;DHT22;43412;-33.800;150.804;2022-09-03T17:17:26;10.70;99.90
57576;DHT22;43412;-33.800;150.804;2022-09-03T17:26:04;10.80;99.90
57576;DHT22;43412;-33.800;150.804;2022-09-03T17:34:49;10.90;99.90
57576;DHT22;43412;-33.800;150.804;2022-09-03T17:48:50;10.80;99.90
57576;DHT22;43412;-33.800;150.804;2022-09-03T18:03:10;11.00;99.90
57576;DHT22;43412;-33.800;150.804;2022-09-03T18:11:13;11.10;99.90
57576;DHT22;43412;-33.800;150.804;2022-09-03T18:16:30;11.00;99.90
57576;DHT22;43412;-33.800;150.804;2022-09-03T18:21:57;11.00;99.90
57576;DHT22;43412;-33.800;150.804;2022-09-03T18:24:46;10.90;99.90
57576;DHT22;43412;-33.800;150.804;2022-09-03T18:27:39;10.90;99.90
57576;DHT22;43412;-33.800;150.804;2022-09-03T18:30:26;11.00;99.90
57576;DHT22;43412;-33.800;150.804;2022-09-03T18:33:11;11.00;99.90
57576;DHT22;43412;-33.800;150.804;2022-09-03T18:35:58;11.00;99.90
57576;DHT22;43412;-33.800;150.804;2022-09-03T18:38:42;11.10;99.90
57576;DHT22;43412;-33.800;150.804;2022-09-03T18:48:54;11.10;99.90
57576;DHT22;43412;-33.800;150.804;2022-09-03T18:51:53;11.10;99.90
57576;DHT22;43412;-33.800;150.804;2022-09-03T18:54:47;11.00;99.90
57576;DHT22;43412;-33.800;150.804;2022-09-03T18:58:13;10.90;99.90
57576;DHT22;43412;-33.800;150.804;2022-09-03T19:01:30;10.80;99.90
57576;DHT22;43412;-33.800;150.804;2022-09-03T19:10:20;10.60;99.90
57576;DHT22;43412;-33.800;150.804;2022-09-03T19:13:35;10.50;99.90
57576;DHT22;43412;-33.800;150.804;2022-09-03T19:16:32;10.60;99.90
57576;DHT22;43412;-33.800;150.804;2022-09-03T19:20:13;10.60;99.90
57576;DHT22;43412;-33.800;150.804;2022-09-03T19:22:49;10.60;99.90
57576;DHT22;43412;-33.800;150.804;2022-09-03T19:25:35;10.60;99.90
57576;DHT22;43412;-33.800;150.804;2022-09-03T19:28:25;10.60;99.90
57576;DHT22;43412;-33.800;150.804;2022-09-03T19:31:40;10.60;99.90
57576;DHT22;43412;-33.800;150.804;2022-09-03T19:37:57;10.50;99.90
57576;DHT22;43412;-33.800;150.804;2022-09-03T19:40:56;10.50;99.90
57576;DHT22;43412;-33.800;150.804;2022-09-03T19:46:59;10.50;99.90
57576;DHT22;43412;-33.800;150.804;2022-09-03T19:53:11;10.60;99.90
57576;DHT22;43412;-33.800;150.804;2022-09-03T19:56:05;10.60;99.90
57576;DHT22;43412;-33.800;150.804;2022-09-03T19:59:00;10.50;99.90
57576;DHT22;43412;-33.800;150.804;2022-09-03T20:01:48;10.50;99.90
57576;DHT22;43412;-33.800;150.804;2022-09-03T20:04:38;10.40;99.90
57576;DHT22;43412;-33.800;150.804;2022-09-03T20:07:26;10.40;99.90
57576;DHT22;43412;-33.800;150.804;2022-09-03T20:10:15;10.40;99.90
57576;DHT22;43412;-33.800;150.804;2022-09-03T20:13:17;10.40;99.90
57576;DHT22;43412;-33.800;150.804;2022-09-03T20:21:26;10.40;99.90
57576;DHT22;43412;-33.800;150.804;2022-09-03T20:23:59;10.40;99.90
57576;DHT22;43412;-33.800;150.804;2022-09-03T20:26:41;10.40;99.90
57576;DHT22;43412;-33.800;150.804;2022-09-03T20:32:43;10.50;99.90
57576;DHT22;43412;-33.800;150.804;2022-09-03T20:38:57;10.50;99.90
57576;DHT22;43412;-33.800;150.804;2022-09-03T20:42:01;10.50;99.90
57576;DHT22;43412;-33.800;150.804;2022-09-03T20:44:57;10.50;99.90
57576;DHT22;43412;-33.800;150.804;2022-09-03T20:55:47;10.80;99.90
57576;DHT22;43412;-33.800;150.804;2022-09-03T21:01:05;11.00;99.90
57576;DHT22;43412;-33.800;150.804;2022-09-03T21:09:44;11.40;99.90
57576;DHT22;43412;-33.800;150.804;2022-09-03T21:17:39;11.70;99.90
57576;DHT22;43412;-33.800;150.804;2022-09-03T21:25:38;11.60;99.90
57576;DHT22;43412;-33.800;150.804;2022-09-03T21:28:23;11.60;99.90
57576;DHT22;43412;-33.800;150.804;2022-09-03T21:30:59;11.50;99.90